createdAt,value
2018-04-23T00:00:37.625Z,100566.65
2018-04-23T00:03:05.916Z,100574.38
2018-04-23T00:05:34.195Z,100577.80
2018-04-23T00:08:02.474Z,100572.70
2018-04-23T00:10:30.766Z,100551.16
2018-04-23T00:12:59.051Z,100558.30
2018-04-23T00:15:27.326Z,100562.26
2018-04-23T00:17:55.614Z,100567.05
2018-04-23T00:20:23.890Z,100550.27
2018-04-23T00:22:52.182Z,100549.59
2018-04-23T00:25:20.463Z,100570.52
2018-04-23T00:27:48.754Z,100572.06
2018-04-23T00:30:17.039Z,100565.84
2018-04-23T00:32:45.307Z,100566.30
2018-04-23T00:35:13.595Z,100562.15
2018-04-23T00:37:41.858Z,100560.25
2018-04-23T00:40:10.146Z,100548.48
2018-04-23T00:42:38.415Z,100555.27
2018-04-23T00:45:06.702Z,100550.19
2018-04-23T00:47:34.974Z,100549.80
2018-04-23T00:50:03.259Z,100550.06
2018-04-23T00:52:31.538Z,100554.42
2018-04-23T00:54:59.822Z,100560.61
2018-04-23T00:57:28.094Z,100572.14
2018-04-23T00:59:56.395Z,100567.08
2018-04-23T01:02:24.661Z,100570.55
2018-04-23T01:04:53.914Z,100562.89
2018-04-23T01:07:22.194Z,100561.49
2018-04-23T01:09:50.470Z,100557.49
2018-04-23T01:12:18.774Z,100564.36
2018-04-23T01:14:47.051Z,100557.55
2018-04-23T01:17:15.586Z,100556.58
2018-04-23T01:19:43.863Z,100565.52
2018-04-23T01:22:12.136Z,100568.16
2018-04-23T01:24:40.410Z,100568.61
2018-04-23T01:27:08.696Z,100567.13
2018-04-23T01:29:36.987Z,100570.05
2018-04-23T01:32:05.263Z,100573.36
2018-04-23T01:34:33.543Z,100572.05
2018-04-23T01:37:01.817Z,100577.27
2018-04-23T01:39:30.098Z,100579.42
2018-04-23T01:41:58.370Z,100582.55
2018-04-23T01:44:26.657Z,100580.63
2018-04-23T01:46:54.937Z,100583.70
2018-04-23T01:49:23.234Z,100588.41
2018-04-23T01:51:52.530Z,100588.81
2018-04-23T01:54:20.802Z,100590.95
2018-04-23T01:56:49.087Z,100605.11
2018-04-23T01:59:17.392Z,100608.86
2018-04-23T02:01:45.654Z,100619.05
2018-04-23T02:04:13.930Z,100637.45
2018-04-23T02:06:42.212Z,100639.55
2018-04-23T02:09:10.495Z,100629.47
2018-04-23T02:11:39.598Z,100632.64
2018-04-23T02:14:07.891Z,100627.63
2018-04-23T02:16:36.164Z,100597.90
2018-04-23T02:19:04.454Z,100586.78
2018-04-23T02:21:32.731Z,100597.02
2018-04-23T02:24:01.000Z,100598.29
2018-04-23T02:26:29.286Z,100621.92
2018-04-23T02:28:57.557Z,100620.48
2018-04-23T02:31:25.831Z,100625.42
2018-04-23T02:33:54.111Z,100622.92
2018-04-23T02:36:22.398Z,100618.01
2018-04-23T02:38:50.667Z,100621.86
2018-04-23T02:41:18.962Z,100619.45
2018-04-23T02:43:47.240Z,100619.43
2018-04-23T02:46:15.519Z,100633.86
2018-04-23T02:48:43.810Z,100628.37
2018-04-23T02:51:12.084Z,100619.23
2018-04-23T02:53:40.371Z,100627.56
2018-04-23T02:56:08.642Z,100631.27
2018-04-23T02:58:36.945Z,100629.33
2018-04-23T03:01:05.266Z,100639.00
2018-04-23T03:03:33.567Z,100627.34
2018-04-23T03:06:01.841Z,100616.98
2018-04-23T03:08:30.155Z,100629.53
2018-04-23T03:10:58.439Z,100617.45
2018-04-23T03:13:26.710Z,100625.56
2018-04-23T03:15:54.999Z,100625.98
2018-04-23T03:18:23.278Z,100635.26
2018-04-23T03:20:51.554Z,100637.50
2018-04-23T03:23:19.833Z,100632.17
2018-04-23T03:25:48.124Z,100631.03
2018-04-23T03:28:16.451Z,100629.66
2018-04-23T03:30:44.741Z,100630.97
2018-04-23T03:33:13.013Z,100627.33
2018-04-23T03:35:41.312Z,100630.20
2018-04-23T03:38:09.582Z,100638.95
2018-04-23T03:40:37.879Z,100646.13
2018-04-23T03:43:06.158Z,100641.55
2018-04-23T03:45:34.446Z,100644.98
2018-04-23T03:48:02.722Z,100645.88
2018-04-23T03:50:31.030Z,100645.80
2018-04-23T03:52:59.277Z,100639.72
2018-04-23T03:55:27.555Z,100646.25
2018-04-23T03:57:55.838Z,100648.41
2018-04-23T04:00:24.106Z,100640.83
2018-04-23T04:02:52.394Z,100639.11
2018-04-23T04:05:20.673Z,100638.83
2018-04-23T04:07:48.961Z,100647.30
2018-04-23T04:10:17.247Z,100649.50
2018-04-23T04:12:57.416Z,100641.30
2018-04-23T04:15:37.362Z,100650.94
2018-04-23T04:21:19.705Z,100648.13
2018-04-23T04:23:47.998Z,100646.64
2018-04-23T04:26:16.286Z,100647.83
2018-04-23T04:28:44.574Z,100645.41
2018-04-23T04:31:12.855Z,100650.54
2018-04-23T04:33:41.130Z,100658.88
2018-04-23T04:36:09.410Z,100654.67
2018-04-23T04:38:37.696Z,100658.30
2018-04-23T04:41:05.979Z,100650.43
2018-04-23T04:43:34.310Z,100649.30
2018-04-23T04:46:02.557Z,100652.55
2018-04-23T04:48:30.837Z,100654.92
2018-04-23T04:50:59.123Z,100656.91
2018-04-23T04:53:27.414Z,100670.92
2018-04-23T04:55:55.688Z,100671.41
2018-04-23T04:58:23.973Z,100671.66
2018-04-23T05:00:52.640Z,100666.78
2018-04-23T05:03:20.926Z,100675.34
2018-04-23T05:05:49.206Z,100675.47
2018-04-23T05:08:17.484Z,100683.80
2018-04-23T05:10:45.774Z,100693.06
2018-04-23T05:13:14.078Z,100671.88
2018-04-23T05:15:42.378Z,100676.25
2018-04-23T05:18:10.672Z,100680.69
2018-04-23T05:20:38.959Z,100675.59
2018-04-23T05:23:07.252Z,100679.39
2018-04-23T05:25:35.534Z,100687.86
2018-04-23T05:28:03.810Z,100697.41
2018-04-23T05:30:32.087Z,100701.36
2018-04-23T05:33:00.366Z,100698.05
2018-04-23T05:35:28.642Z,100704.51
2018-04-23T05:37:56.933Z,100697.00
2018-04-23T05:40:25.202Z,100702.69
2018-04-23T05:42:53.489Z,100709.42
2018-04-23T05:45:21.771Z,100709.58
2018-04-23T05:47:50.063Z,100713.33
2018-04-23T05:50:18.363Z,100710.98
2018-04-23T05:52:46.666Z,100722.36
2018-04-23T05:55:14.941Z,100716.95
2018-04-23T05:57:43.222Z,100726.33
2018-04-23T06:00:11.510Z,100736.48
2018-04-23T06:02:39.790Z,100731.89
2018-04-23T06:05:08.134Z,100730.66
2018-04-23T06:07:36.397Z,100728.86
2018-04-23T06:10:04.695Z,100733.53
2018-04-23T06:12:32.974Z,100735.77
2018-04-23T06:15:01.259Z,100742.03
2018-04-23T06:17:29.547Z,100737.91
2018-04-23T06:19:57.818Z,100745.08
2018-04-23T06:22:26.112Z,100750.78
2018-04-23T06:24:54.385Z,100749.16
2018-04-23T06:27:22.663Z,100751.77
2018-04-23T06:29:50.953Z,100748.11
2018-04-23T06:32:19.226Z,100749.42
2018-04-23T06:34:47.530Z,100756.25
2018-04-23T06:37:15.814Z,100754.11
2018-04-23T06:39:44.118Z,100760.92
2018-04-23T06:42:12.403Z,100765.83
2018-04-23T06:44:40.687Z,100779.34
2018-04-23T06:47:08.962Z,100775.03
2018-04-23T06:49:37.252Z,100774.65
2018-04-23T06:52:05.519Z,100775.44
2018-04-23T06:54:33.792Z,100778.12
2018-04-23T06:57:02.067Z,100776.09
2018-04-23T06:59:30.342Z,100781.33
2018-04-23T07:01:58.645Z,100789.00
2018-04-23T07:04:26.923Z,100771.17
2018-04-23T07:06:55.198Z,100783.20
2018-04-23T07:09:23.475Z,100787.90
2018-04-23T07:11:51.753Z,100783.52
2018-04-23T07:14:20.068Z,100788.85
2018-04-23T07:16:48.344Z,100791.58
2018-04-23T07:19:16.618Z,100802.69
2018-04-23T07:21:44.927Z,100795.81
2018-04-23T07:24:13.255Z,100792.98
2018-04-23T07:26:42.363Z,100792.23
2018-04-23T07:29:10.639Z,100792.86
2018-04-23T07:31:38.919Z,100794.47
2018-04-23T07:34:07.210Z,100800.31
2018-04-23T07:36:35.487Z,100799.98
2018-04-23T07:39:03.777Z,100795.67
2018-04-23T07:41:32.052Z,100803.72
2018-04-23T07:44:00.329Z,100799.87
2018-04-23T07:46:28.610Z,100798.58
2018-04-23T07:48:56.898Z,100806.13
2018-04-23T07:51:25.191Z,100804.82
2018-04-23T07:53:53.474Z,100798.70
2018-04-23T07:56:21.753Z,100808.59
2018-04-23T07:58:50.055Z,100811.98
2018-04-23T08:01:18.330Z,100809.37
2018-04-23T08:03:46.622Z,100811.41
2018-04-23T08:06:14.926Z,100816.98
2018-04-23T08:08:43.204Z,100815.35
2018-04-23T08:11:11.495Z,100821.62
2018-04-23T08:13:39.778Z,100829.84
2018-04-23T08:16:08.095Z,100820.34
2018-04-23T08:18:36.382Z,100810.61
2018-04-23T08:21:04.663Z,100819.31
2018-04-23T08:23:33.877Z,100812.19
2018-04-23T08:26:02.147Z,100811.41
2018-04-23T08:28:30.438Z,100808.73
2018-04-23T08:30:58.734Z,100817.30
2018-04-23T08:33:27.154Z,100817.20
2018-04-23T08:35:55.455Z,100807.19
2018-04-23T08:38:23.732Z,100811.28
2018-04-23T08:40:52.026Z,100818.16
2018-04-23T08:43:20.302Z,100809.73
2018-04-23T08:45:48.594Z,100811.80
2018-04-23T08:48:16.892Z,100806.52
2018-04-23T08:50:45.174Z,100804.41
2018-04-23T08:53:13.456Z,100810.52
2018-04-23T08:55:41.724Z,100797.81
2018-04-23T08:58:10.030Z,100801.36
2018-04-23T09:00:38.310Z,100804.06
2018-04-23T09:03:06.858Z,100807.13
2018-04-23T09:05:35.145Z,100810.84
2018-04-23T09:08:03.435Z,100812.77
2018-04-23T09:10:31.721Z,100814.52
2018-04-23T09:13:00.015Z,100822.67
2018-04-23T09:15:28.306Z,100822.12
2018-04-23T09:17:56.588Z,100817.34
2018-04-23T09:20:24.865Z,100830.77
2018-04-23T09:22:53.161Z,100830.48
2018-04-23T09:25:21.439Z,100835.66
2018-04-23T09:27:49.759Z,100834.94
2018-04-23T09:30:18.034Z,100833.47
2018-04-23T09:32:46.321Z,100828.88
2018-04-23T09:35:14.625Z,100834.45
2018-04-23T09:37:42.898Z,100837.92
2018-04-23T09:40:11.191Z,100842.50
2018-04-23T09:42:39.470Z,100845.39
2018-04-23T09:45:07.751Z,100845.47
2018-04-23T09:47:37.639Z,100836.73
2018-04-23T09:50:05.985Z,100841.13
2018-04-23T09:52:34.245Z,100842.33
2018-04-23T09:55:02.519Z,100852.64
2018-04-23T09:57:30.811Z,100854.77
2018-04-23T10:00:00.103Z,100864.14
2018-04-23T10:02:28.374Z,100866.43
2018-04-23T10:04:56.663Z,100868.16
2018-04-23T10:07:24.949Z,100875.41
2018-04-23T10:09:53.250Z,100876.67
2018-04-23T10:12:21.546Z,100879.27
2018-04-23T10:14:49.863Z,100887.42
2018-04-23T10:17:18.176Z,100881.91
2018-04-23T10:19:46.463Z,100881.27
2018-04-23T10:22:14.766Z,100876.74
2018-04-23T10:24:43.054Z,100875.75
2018-04-23T10:27:11.351Z,100882.78
2018-04-23T10:29:39.643Z,100887.48
2018-04-23T10:32:07.955Z,100898.14
2018-04-23T10:34:36.246Z,100899.75
2018-04-23T10:37:04.527Z,100907.51
2018-04-23T10:39:32.838Z,100907.17
2018-04-23T10:42:01.131Z,100905.91
2018-04-23T10:44:29.433Z,100899.32
2018-04-23T10:46:57.703Z,100904.78
2018-04-23T10:49:26.018Z,100902.26
2018-04-23T10:51:54.314Z,100910.15
2018-04-23T10:54:22.620Z,100914.89
2018-04-23T10:56:50.917Z,100907.13
2018-04-23T10:59:19.202Z,100912.27
2018-04-23T11:01:47.519Z,100911.58
2018-04-23T11:04:15.807Z,100907.09
2018-04-23T11:06:44.258Z,100906.05
2018-04-23T11:09:12.550Z,100907.90
2018-04-23T11:11:40.842Z,100909.36
2018-04-23T11:14:09.144Z,100909.51
2018-04-23T11:16:37.422Z,100904.48
2018-04-23T11:19:05.703Z,100902.67
2018-04-23T11:21:33.999Z,100907.64
2018-04-23T11:24:02.274Z,100905.91
2018-04-23T11:26:30.599Z,100909.30
2018-04-23T11:28:58.950Z,100897.35
2018-04-23T11:31:27.227Z,100903.80
2018-04-23T11:33:55.517Z,100892.43
2018-04-23T11:36:23.852Z,100905.30
2018-04-23T11:38:52.115Z,100900.00
2018-04-23T11:41:20.399Z,100903.48
2018-04-23T11:43:48.681Z,100902.63
2018-04-23T11:46:16.975Z,100899.59
2018-04-23T11:48:45.258Z,100898.86
2018-04-23T11:51:13.550Z,100908.41
2018-04-23T11:53:41.837Z,100900.00
2018-04-23T11:56:10.120Z,100905.83
2018-04-23T11:58:38.401Z,100905.09
2018-04-23T12:01:06.694Z,100894.99
2018-04-23T12:03:34.978Z,100888.10
2018-04-23T12:06:03.266Z,100890.07
2018-04-23T12:08:31.559Z,100898.70
2018-04-23T12:10:59.841Z,100900.16
2018-04-23T12:13:28.151Z,100905.54
2018-04-23T12:15:56.418Z,100894.08
2018-04-23T12:18:24.723Z,100896.77
2018-04-23T12:20:53.001Z,100900.75
2018-04-23T12:23:21.951Z,100892.84
2018-04-23T12:25:50.497Z,100891.61
2018-04-23T12:28:18.766Z,100887.01
2018-04-23T12:30:47.048Z,100881.72
2018-04-23T12:33:15.331Z,100889.44
2018-04-23T12:35:43.602Z,100887.91
2018-04-23T12:38:11.915Z,100891.86
2018-04-23T12:40:40.182Z,100888.11
2018-04-23T12:43:08.458Z,100888.86
2018-04-23T12:45:36.743Z,100890.31
2018-04-23T12:48:05.011Z,100903.11
2018-04-23T12:50:33.310Z,100899.53
2018-04-23T12:53:01.589Z,100901.26
2018-04-23T12:55:29.859Z,100895.27
2018-04-23T12:57:58.147Z,100890.21
2018-04-23T13:00:26.423Z,100886.70
2018-04-23T13:02:54.702Z,100892.48
2018-04-23T13:05:22.978Z,100893.26
2018-04-23T13:07:51.251Z,100886.03
2018-04-23T13:10:19.546Z,100875.86
2018-04-23T13:12:47.970Z,100892.42
2018-04-23T13:15:16.253Z,100889.39
2018-04-23T13:17:44.531Z,100881.56
2018-04-23T13:20:12.807Z,100875.17
2018-04-23T13:22:41.087Z,100873.42
2018-04-23T13:25:09.362Z,100861.63
2018-04-23T13:27:37.650Z,100864.58
2018-04-23T13:30:05.931Z,100859.53
2018-04-23T13:32:34.202Z,100849.14
2018-04-23T13:35:02.483Z,100860.24
2018-04-23T13:37:30.759Z,100851.18
2018-04-23T13:39:59.039Z,100847.77
2018-04-23T13:42:27.361Z,100847.67
2018-04-23T13:44:55.846Z,100836.73
2018-04-23T13:47:24.125Z,100838.28
2018-04-23T13:49:52.432Z,100838.19
2018-04-23T13:52:20.709Z,100831.87
2018-04-23T13:54:48.978Z,100822.84
2018-04-23T13:57:17.278Z,100829.70
2018-04-23T13:59:45.551Z,100830.44
2018-04-23T14:02:13.847Z,100833.30
2018-04-23T14:04:42.122Z,100823.75
2018-04-23T14:07:10.402Z,100820.41
2018-04-23T14:09:38.679Z,100819.59
2018-04-23T14:12:06.954Z,100830.61
2018-04-23T14:14:35.244Z,100816.41
2018-04-23T14:17:03.513Z,100810.11
2018-04-23T14:19:31.821Z,100808.22
2018-04-23T14:22:00.094Z,100808.92
2018-04-23T14:24:29.050Z,100811.62
2018-04-23T14:26:57.330Z,100816.16
2018-04-23T14:29:25.595Z,100812.16
2018-04-23T14:31:53.977Z,100814.75
2018-04-23T14:34:22.258Z,100807.77
2018-04-23T14:36:50.530Z,100809.13
2018-04-23T14:39:18.838Z,100799.10
2018-04-23T14:41:47.108Z,100798.19
2018-04-23T14:44:15.405Z,100797.05
2018-04-23T14:46:43.754Z,100803.47
2018-04-23T14:49:12.047Z,100796.34
2018-04-23T14:51:40.323Z,100803.48
2018-04-23T14:54:08.599Z,100793.30
2018-04-23T14:56:36.885Z,100798.83
2018-04-23T14:59:05.169Z,100802.66
2018-04-23T15:01:33.811Z,100807.13
2018-04-23T15:04:02.098Z,100813.52
2018-04-23T15:06:30.398Z,100815.11
2018-04-23T15:08:59.376Z,100806.67
2018-04-23T15:11:27.654Z,100811.33
2018-04-23T15:13:55.941Z,100812.69
2018-04-23T15:16:24.212Z,100807.33
2018-04-23T15:18:52.494Z,100818.77
2018-04-23T15:21:20.774Z,100817.96
2018-04-23T15:23:49.066Z,100821.27
2018-04-23T15:26:17.346Z,100816.70
2018-04-23T15:28:45.623Z,100816.98
2018-04-23T15:31:13.912Z,100829.33
2018-04-23T15:33:42.296Z,100838.06
2018-04-23T15:36:10.567Z,100834.64
2018-04-23T15:38:38.846Z,100839.16
2018-04-23T15:41:07.149Z,100842.61
2018-04-23T15:43:35.405Z,100844.41
2018-04-23T15:46:03.685Z,100847.95
2018-04-23T15:48:31.954Z,100859.64
2018-04-23T15:51:00.263Z,100855.01
2018-04-23T15:53:28.546Z,100853.87
2018-04-23T15:55:56.841Z,100858.30
2018-04-23T15:58:37.414Z,100867.70
2018-04-23T16:01:05.702Z,100860.44
2018-04-23T16:03:33.974Z,100866.20
2018-04-23T16:06:02.256Z,100868.55
2018-04-23T16:08:30.548Z,100866.91
2018-04-23T16:10:58.830Z,100863.23
2018-04-23T16:13:27.118Z,100866.84
2018-04-23T16:15:55.387Z,100872.36
2018-04-23T16:18:23.658Z,100871.39
2018-04-23T16:20:51.963Z,100875.41
2018-04-23T16:23:20.248Z,100879.77
2018-04-23T16:25:48.554Z,100879.19
2018-04-23T16:28:16.903Z,100877.52
2018-04-23T16:30:45.187Z,100880.84
2018-04-23T16:33:13.479Z,100872.78
2018-04-23T16:35:41.767Z,100875.47
2018-04-23T16:38:10.083Z,100871.58
2018-04-23T16:40:38.340Z,100871.92
2018-04-23T16:43:06.659Z,100884.45
2018-04-23T16:45:34.934Z,100886.27
2018-04-23T16:48:03.255Z,100884.04
2018-04-23T16:50:31.642Z,100881.77
2018-04-23T16:52:59.923Z,100880.86
2018-04-23T16:55:28.195Z,100885.16
2018-04-23T16:57:57.420Z,100883.69
2018-04-23T17:00:25.686Z,100883.02
2018-04-23T17:02:54.094Z,100885.03
2018-04-23T17:05:22.374Z,100884.54
2018-04-23T17:07:51.012Z,100893.55
2018-04-23T17:10:19.289Z,100889.92
2018-04-23T17:12:47.562Z,100890.05
2018-04-23T17:15:15.850Z,100883.98
2018-04-23T17:17:44.129Z,100890.57
2018-04-23T17:20:12.431Z,100890.43
2018-04-23T17:22:40.719Z,100889.00
2018-04-23T17:25:09.011Z,100888.73
2018-04-23T17:27:37.289Z,100891.99
2018-04-23T17:30:05.563Z,100887.17
2018-04-23T17:32:34.312Z,100891.17
2018-04-23T17:35:02.545Z,100894.08
2018-04-23T17:37:30.810Z,100897.28
2018-04-23T17:39:59.093Z,100899.72
2018-04-23T17:42:27.373Z,100906.97
2018-04-23T17:44:55.914Z,100903.33
2018-04-23T17:47:24.186Z,100907.96
2018-04-23T17:49:52.464Z,100913.10
2018-04-23T17:52:20.754Z,100916.15
2018-04-23T17:54:49.087Z,100918.83
2018-04-23T17:57:17.399Z,100916.52
2018-04-23T17:59:45.686Z,100921.33
2018-04-23T18:02:13.959Z,100922.31
2018-04-23T18:04:42.276Z,100922.03
2018-04-23T18:07:10.538Z,100924.50
2018-04-23T18:09:38.876Z,100919.33
2018-04-23T18:12:07.148Z,100923.12
2018-04-23T18:14:35.424Z,100921.86
2018-04-23T18:17:03.715Z,100921.67
2018-04-23T18:19:31.994Z,100931.62
2018-04-23T18:22:00.552Z,100925.81
2018-04-23T18:24:28.863Z,100926.17
2018-04-23T18:26:57.146Z,100930.45
2018-04-23T18:29:25.438Z,100937.72
2018-04-23T18:31:56.037Z,100934.27
2018-04-23T18:34:24.307Z,100931.87
2018-04-23T18:36:52.590Z,100936.36
2018-04-23T18:39:20.875Z,100944.42
2018-04-23T18:41:49.155Z,100947.33
2018-04-23T18:44:17.426Z,100947.47
2018-04-23T18:46:46.630Z,100948.10
2018-04-23T18:49:14.907Z,100945.83
2018-04-23T18:51:43.182Z,100948.38
2018-04-23T18:54:11.466Z,100952.43
2018-04-23T18:56:39.745Z,100952.37
2018-04-23T18:59:08.025Z,100950.47
2018-04-23T19:01:36.301Z,100953.13
2018-04-23T19:04:04.582Z,100963.67
2018-04-23T19:06:32.853Z,100963.17
2018-04-23T19:09:01.151Z,100963.30
2018-04-23T19:11:29.457Z,100964.10
2018-04-23T19:13:57.726Z,100966.70
2018-04-23T19:16:26.051Z,100974.62
2018-04-23T19:18:54.316Z,100972.13
2018-04-23T19:21:22.729Z,100976.59
2018-04-23T19:23:51.046Z,100975.80
2018-04-23T19:26:19.321Z,100978.30
2018-04-23T19:28:47.606Z,100984.39
2018-04-23T19:31:15.883Z,100987.47
2018-04-23T19:33:44.190Z,100995.77
2018-04-23T19:36:12.456Z,100989.22
2018-04-23T19:38:40.825Z,100992.03
2018-04-23T19:41:09.015Z,100997.86
2018-04-23T19:43:37.286Z,101002.20
2018-04-23T19:46:05.581Z,101007.56
2018-04-23T19:48:33.838Z,101008.74
2018-04-23T19:51:03.076Z,101014.42
2018-04-23T19:53:31.376Z,101019.95
2018-04-23T19:55:59.651Z,101023.88
2018-04-23T19:58:27.936Z,101019.85
2018-04-23T20:00:56.206Z,101028.77
2018-04-23T20:03:24.490Z,101033.35
2018-04-23T20:05:52.786Z,101030.37
2018-04-23T20:08:21.055Z,101034.19
2018-04-23T20:10:49.342Z,101033.34
2018-04-23T20:13:17.614Z,101028.41
2018-04-23T20:15:45.931Z,101033.59
2018-04-23T20:18:17.829Z,101038.38
2018-04-23T20:20:46.130Z,101035.27
2018-04-23T20:23:14.504Z,101042.38
2018-04-23T20:25:42.869Z,101037.98
2018-04-23T20:28:11.142Z,101037.06
2018-04-23T20:30:39.417Z,101028.56
2018-04-23T20:33:07.827Z,101034.96
2018-04-23T20:35:36.108Z,101039.45
2018-04-23T20:38:04.394Z,101032.74
2018-04-23T20:40:32.745Z,101034.89
2018-04-23T20:43:01.004Z,101042.73
2018-04-23T20:45:29.282Z,101034.75
2018-04-23T20:47:57.555Z,101043.28
2018-04-23T20:50:25.848Z,101035.20
2018-04-23T20:52:54.123Z,101042.13
2018-04-23T20:55:22.403Z,101039.36
2018-04-23T20:57:50.692Z,101041.59
2018-04-23T21:00:18.975Z,101044.37
2018-04-23T21:02:47.253Z,101047.34
2018-04-23T21:05:15.526Z,101046.79
2018-04-23T21:07:43.810Z,101042.46
2018-04-23T21:10:12.082Z,101046.25
2018-04-23T21:12:40.400Z,101050.70
2018-04-23T21:15:08.655Z,101053.68
2018-04-23T21:17:37.871Z,101061.69
2018-04-23T21:20:06.150Z,101064.62
2018-04-23T21:22:34.425Z,101062.13
2018-04-23T21:25:02.698Z,101068.69
2018-04-23T21:27:30.978Z,101068.01
2018-04-23T21:29:59.250Z,101071.20
2018-04-23T21:32:27.527Z,101077.00
2018-04-23T21:34:55.801Z,101074.67
2018-04-23T21:37:24.087Z,101076.19
2018-04-23T21:39:52.354Z,101074.58
2018-04-23T21:42:20.637Z,101074.80
2018-04-23T21:44:48.909Z,101073.84
2018-04-23T21:47:17.186Z,101074.41
2018-04-23T21:49:45.619Z,101073.63
2018-04-23T21:52:14.471Z,101077.69
2018-04-23T21:54:42.763Z,101076.16
2018-04-23T21:57:11.041Z,101078.89
2018-04-23T21:59:39.335Z,101081.30
2018-04-23T22:02:08.006Z,101080.09
2018-04-23T22:04:36.270Z,101080.48
2018-04-23T22:07:04.558Z,101077.64
2018-04-23T22:09:32.834Z,101078.89
2018-04-23T22:12:01.122Z,101075.16
2018-04-23T22:14:29.401Z,101076.20
2018-04-23T22:16:57.774Z,101083.91
2018-04-23T22:19:25.962Z,101081.61
2018-04-23T22:21:54.278Z,101081.74
2018-04-23T22:24:22.558Z,101079.62
2018-04-23T22:26:50.834Z,101089.97
2018-04-23T22:29:19.118Z,101092.09
2018-04-23T22:31:47.390Z,101093.03
2018-04-23T22:34:15.803Z,101089.47
2018-04-23T22:36:44.050Z,101091.77
2018-04-23T22:39:12.323Z,101090.47
2018-04-23T22:41:40.603Z,101088.28
2018-04-23T22:44:08.870Z,101096.23
2018-04-23T22:46:37.154Z,101099.84
2018-04-23T22:49:05.426Z,101103.83
2018-04-23T22:51:33.699Z,101100.06
2018-04-23T22:54:01.988Z,101112.03
2018-04-23T22:56:30.252Z,101107.47
2018-04-23T22:58:58.539Z,101104.13
2018-04-23T23:01:26.810Z,101114.41
2018-04-23T23:03:55.086Z,101114.41
2018-04-23T23:06:23.357Z,101121.82
2018-04-23T23:08:51.658Z,101124.44
2018-04-23T23:11:19.916Z,101124.74
2018-04-23T23:13:48.194Z,101122.09
2018-04-23T23:16:16.474Z,101115.95
2018-04-23T23:18:44.747Z,101118.91
2018-04-23T23:21:13.034Z,101124.40
2018-04-23T23:23:42.269Z,101125.05
2018-04-23T23:26:10.550Z,101130.20
2018-04-23T23:28:38.847Z,101126.98
2018-04-23T23:31:07.127Z,101123.66
2018-04-23T23:33:35.410Z,101134.75
2018-04-23T23:36:03.683Z,101133.84
2018-04-23T23:38:32.436Z,101129.95
2018-04-23T23:41:00.611Z,101143.06
2018-04-23T23:43:28.887Z,101147.93
2018-04-23T23:45:57.170Z,101144.81
2018-04-23T23:48:25.442Z,101144.95
2018-04-23T23:50:53.723Z,101137.30
2018-04-23T23:53:22.022Z,101145.64
2018-04-23T23:55:50.314Z,101150.08
2018-04-23T23:58:18.610Z,101149.37
